createdAt,value
2023-04-28T00:01:28.993Z,37.72
2023-04-28T00:03:57.041Z,25.85
2023-04-28T00:06:23.944Z,24.52
2023-04-28T00:08:50.648Z,26.23
2023-04-28T00:11:17.338Z,26.10
2023-04-28T00:13:44.158Z,23.75
2023-04-28T00:16:11.030Z,21.65
2023-04-28T00:18:37.736Z,25.10
2023-04-28T00:21:04.697Z,30.48
2023-04-28T00:23:31.334Z,37.88
2023-04-28T00:25:58.146Z,30.55
2023-04-28T00:30:54.366Z,33.67
2023-04-28T00:33:21.108Z,29.88
2023-04-28T00:35:47.755Z,27.65
2023-04-28T00:38:14.422Z,24.55
2023-04-28T00:40:41.190Z,25.80
2023-04-28T00:43:07.843Z,27.55
2023-04-28T00:45:34.918Z,24.35
2023-04-28T00:48:02.651Z,33.65
2023-04-28T00:50:29.376Z,30.00
2023-04-28T00:52:56.253Z,31.73
2023-04-28T00:55:24.964Z,20.55
2023-04-28T00:57:51.787Z,33.80
2023-04-28T01:00:18.516Z,23.98
2023-04-28T01:02:45.278Z,25.90
2023-04-28T01:05:13.682Z,23.95
2023-04-28T01:07:40.352Z,35.17
2023-04-28T01:10:07.825Z,20.05
2023-04-28T01:12:34.474Z,27.63
2023-04-28T01:15:01.655Z,23.25
2023-04-28T01:17:28.362Z,23.48
2023-04-28T01:19:55.896Z,21.42
2023-04-28T01:22:22.628Z,27.15
2023-04-28T01:24:49.330Z,18.08
2023-04-28T01:27:16.678Z,19.23
2023-04-28T01:29:43.408Z,17.00
2023-04-28T01:32:10.119Z,20.85
2023-04-28T01:34:36.933Z,15.73
2023-04-28T01:37:03.615Z,16.02
2023-04-28T01:39:30.429Z,17.83
2023-04-28T01:41:57.110Z,18.92
2023-04-28T01:44:23.748Z,25.92
2023-04-28T01:46:50.518Z,19.92
2023-04-28T01:49:17.193Z,20.73
2023-04-28T01:51:43.839Z,16.13
2023-04-28T01:54:11.259Z,21.15
2023-04-28T01:56:37.944Z,15.70
2023-04-28T01:59:04.581Z,16.30
2023-04-28T02:01:31.385Z,23.02
2023-04-28T02:03:58.253Z,21.80
2023-04-28T02:06:25.042Z,18.85
2023-04-28T02:08:51.917Z,23.40
2023-04-28T02:11:18.550Z,18.92
2023-04-28T02:13:45.247Z,28.35
2023-04-28T02:16:12.031Z,25.38
2023-04-28T02:18:38.722Z,20.35
2023-04-28T02:21:12.431Z,23.65
2023-04-28T02:23:40.245Z,25.13
2023-04-28T02:26:06.929Z,28.55
2023-04-28T02:28:33.598Z,27.92
2023-04-28T02:31:08.081Z,20.50
2023-04-28T02:33:35.545Z,19.20
2023-04-28T02:36:03.386Z,22.42
2023-04-28T02:38:30.464Z,25.13
2023-04-28T02:41:01.303Z,19.55
2023-04-28T02:43:28.998Z,37.25
2023-04-28T02:45:55.913Z,25.35
2023-04-28T02:48:23.011Z,30.27
2023-04-28T02:50:49.905Z,23.40
2023-04-28T02:53:16.821Z,20.17
2023-04-28T02:55:43.471Z,20.98
2023-04-28T02:58:10.249Z,24.25
2023-04-28T03:00:36.969Z,24.30
2023-04-28T03:03:04.021Z,17.63
2023-04-28T03:05:31.000Z,20.85
2023-04-28T03:07:57.755Z,21.33
2023-04-28T03:10:24.544Z,22.42
2023-04-28T03:12:51.564Z,26.42
2023-04-28T03:15:18.353Z,16.13
2023-04-28T03:17:45.191Z,19.67
2023-04-28T03:20:13.057Z,23.63
2023-04-28T03:22:40.042Z,20.73
2023-04-28T03:25:06.917Z,22.48
2023-04-28T03:27:33.648Z,17.80
2023-04-28T03:30:00.392Z,21.15
2023-04-28T03:32:27.024Z,18.88
2023-04-28T03:34:53.737Z,14.10
2023-04-28T03:37:20.460Z,17.50
2023-04-28T03:39:47.117Z,17.23
2023-04-28T03:42:13.833Z,18.00
2023-04-28T03:44:40.561Z,23.25
2023-04-28T03:47:07.354Z,22.40
2023-04-28T03:49:34.017Z,19.33
2023-04-28T03:52:00.703Z,19.08
2023-04-28T03:54:27.353Z,16.67
2023-04-28T03:56:54.005Z,27.92
2023-04-28T03:59:21.169Z,16.75
2023-04-28T04:01:47.845Z,22.75
2023-04-28T04:04:14.886Z,19.63
2023-04-28T04:06:41.850Z,27.73
2023-04-28T04:09:08.901Z,22.48
2023-04-28T04:11:35.573Z,23.50
2023-04-28T04:14:02.495Z,22.48
2023-04-28T04:16:29.489Z,28.10
2023-04-28T04:18:56.422Z,23.00
2023-04-28T04:21:23.166Z,24.00
2023-04-28T04:23:49.871Z,24.40
2023-04-28T04:26:16.576Z,21.70
2023-04-28T04:28:43.272Z,26.88
2023-04-28T04:31:09.938Z,27.60
2023-04-28T04:33:37.733Z,23.30
2023-04-28T04:36:05.156Z,28.85
2023-04-28T04:38:31.910Z,31.25
2023-04-28T04:40:58.563Z,27.95
2023-04-28T04:43:25.446Z,25.17
2023-04-28T04:45:52.156Z,30.85
2023-04-28T04:48:18.911Z,30.15
2023-04-28T04:50:45.705Z,24.15
2023-04-28T04:53:16.052Z,30.60
2023-04-28T04:55:43.349Z,31.98
2023-04-28T04:58:10.222Z,41.55
2023-04-28T05:00:40.027Z,35.67
2023-04-28T05:03:10.096Z,27.08
2023-04-28T05:05:36.844Z,25.02
2023-04-28T05:08:03.800Z,33.08
2023-04-28T05:10:30.485Z,30.42
2023-04-28T05:12:57.251Z,25.67
2023-04-28T05:15:23.948Z,48.08
2023-04-28T05:17:50.774Z,31.33
2023-04-28T05:20:17.496Z,32.78
2023-04-28T05:22:44.152Z,39.38
2023-04-28T05:25:10.795Z,25.55
2023-04-28T05:27:39.551Z,39.15
2023-04-28T05:30:08.245Z,31.48
2023-04-28T05:32:36.137Z,33.35
2023-04-28T05:35:03.562Z,28.83
2023-04-28T05:37:30.178Z,25.63
2023-04-28T05:39:56.848Z,24.52
2023-04-28T05:42:23.526Z,28.42
2023-04-28T05:44:50.155Z,26.92
2023-04-28T05:47:16.879Z,27.83
2023-04-28T05:49:43.527Z,24.27
2023-04-28T05:52:10.214Z,33.22
2023-04-28T05:54:36.868Z,35.40
2023-04-28T05:57:03.726Z,26.83
2023-04-28T05:59:31.592Z,37.00
2023-04-28T06:01:58.385Z,27.58
2023-04-28T06:04:26.619Z,40.40
2023-04-28T06:06:53.605Z,37.13
2023-04-28T06:09:20.418Z,28.10
2023-04-28T06:11:47.314Z,28.70
2023-04-28T06:14:14.222Z,36.72
2023-04-28T06:16:41.121Z,30.60
2023-04-28T06:19:07.879Z,27.48
2023-04-28T06:21:34.547Z,22.73
2023-04-28T06:24:02.098Z,40.17
2023-04-28T06:26:29.445Z,34.00
2023-04-28T06:28:56.517Z,23.98
2023-04-28T06:31:23.278Z,32.58
2023-04-28T06:33:50.184Z,32.53
2023-04-28T06:36:17.967Z,40.53
2023-04-28T06:38:45.342Z,42.70
2023-04-28T06:41:12.259Z,22.25
2023-04-28T06:43:38.940Z,25.00
2023-04-28T06:46:05.825Z,37.92
2023-04-28T06:48:32.606Z,31.92
2023-04-28T06:50:59.284Z,36.15
2023-04-28T06:53:25.921Z,29.35
2023-04-28T06:55:52.936Z,29.15
2023-04-28T06:58:21.066Z,35.25
2023-04-28T07:00:48.035Z,26.35
2023-04-28T07:03:14.819Z,25.48
2023-04-28T07:05:41.611Z,32.70
2023-04-28T07:08:08.264Z,29.63
2023-04-28T07:10:34.962Z,32.38
2023-04-28T07:13:02.960Z,35.70
2023-04-28T07:15:29.889Z,28.15
2023-04-28T07:17:56.635Z,27.77
2023-04-28T07:20:23.364Z,34.88
2023-04-28T07:22:50.059Z,36.67
2023-04-28T07:25:16.764Z,37.00
2023-04-28T07:27:43.437Z,30.92
2023-04-28T07:30:25.812Z,36.78
2023-04-28T07:32:53.919Z,30.48
2023-04-28T07:35:20.606Z,24.08
2023-04-28T07:37:47.408Z,34.95
2023-04-28T07:40:14.273Z,35.70
2023-04-28T07:42:41.226Z,34.00
2023-04-28T07:45:08.585Z,37.42
2023-04-28T07:47:35.666Z,33.78
2023-04-28T07:50:05.267Z,39.05
2023-04-28T07:52:33.184Z,33.95
2023-04-28T07:55:00.215Z,25.17
2023-04-28T07:57:27.153Z,31.33
2023-04-28T07:59:53.891Z,29.58
2023-04-28T08:02:21.030Z,32.75
2023-04-28T08:04:47.953Z,29.98
2023-04-28T08:07:14.936Z,34.15
2023-04-28T08:09:44.208Z,44.35
2023-04-28T08:12:10.931Z,38.72
2023-04-28T08:14:37.590Z,29.73
2023-04-28T08:17:04.343Z,34.33
2023-04-28T08:19:31.264Z,30.80
2023-04-28T08:21:58.055Z,29.17
2023-04-28T08:24:24.749Z,24.77
2023-04-28T08:26:52.145Z,36.50
2023-04-28T08:29:18.821Z,35.78
2023-04-28T08:31:45.813Z,33.22
2023-04-28T08:34:14.015Z,31.50
2023-04-28T08:36:42.622Z,32.70
2023-04-28T08:39:11.108Z,45.67
2023-04-28T08:41:42.233Z,36.42
2023-04-28T08:44:10.062Z,32.80
2023-04-28T08:46:42.353Z,26.23
2023-04-28T08:49:17.082Z,29.03
2023-04-28T08:51:55.615Z,42.28
2023-04-28T08:54:26.964Z,39.25
2023-04-28T08:56:55.719Z,39.47
2023-04-28T08:59:22.814Z,36.05
2023-04-28T09:01:50.611Z,43.70
2023-04-28T09:04:18.608Z,47.38
2023-04-28T09:06:46.634Z,41.95
2023-04-28T09:09:25.378Z,35.50
2023-04-28T09:11:52.365Z,33.08
2023-04-28T09:14:19.210Z,33.47
2023-04-28T09:16:46.332Z,37.30
2023-04-28T09:19:13.209Z,37.15
2023-04-28T09:21:53.860Z,28.45
2023-04-28T09:24:31.900Z,42.47
2023-04-28T09:27:04.468Z,44.75
2023-04-28T09:29:32.112Z,45.60
2023-04-28T09:32:22.262Z,47.35
2023-04-28T09:34:51.529Z,59.63
2023-04-28T09:37:23.488Z,37.42
2023-04-28T09:39:51.859Z,38.60
2023-04-28T09:42:42.675Z,34.42
2023-04-28T09:45:11.349Z,34.03
2023-04-28T09:47:42.005Z,37.50
2023-04-28T09:50:12.830Z,54.35
2023-04-28T09:52:41.512Z,36.03
2023-04-28T09:55:08.989Z,46.70
2023-04-28T09:57:36.597Z,32.72
2023-04-28T10:00:09.560Z,41.67
2023-04-28T10:05:10.041Z,35.17
2023-04-28T10:07:37.718Z,45.03
2023-04-28T10:10:05.605Z,45.35
2023-04-28T10:12:33.173Z,41.78
2023-04-28T10:15:00.528Z,49.50
2023-04-28T10:17:29.794Z,59.25
2023-04-28T10:19:57.285Z,45.33
2023-04-28T10:22:42.441Z,41.13
2023-04-28T10:25:12.185Z,43.00
2023-04-28T10:27:41.205Z,54.55
2023-04-28T10:30:27.547Z,34.47
2023-04-28T10:33:14.326Z,43.25
2023-04-28T10:35:47.978Z,52.13
2023-04-28T10:38:14.944Z,38.30
2023-04-28T10:40:42.678Z,56.58
2023-04-28T10:43:11.256Z,46.42
2023-04-28T10:45:56.274Z,57.80
2023-04-28T10:48:46.564Z,40.33
2023-04-28T10:51:16.580Z,51.15
2023-04-28T10:53:47.169Z,33.20
2023-04-28T10:56:25.608Z,35.50
2023-04-28T10:58:56.210Z,31.42
2023-04-28T11:01:24.910Z,35.28
2023-04-28T11:04:00.943Z,35.97
2023-04-28T11:06:40.345Z,40.95
2023-04-28T11:09:14.120Z,41.45
2023-04-28T11:12:05.706Z,40.95
2023-04-28T11:14:36.488Z,38.47
2023-04-28T11:17:05.110Z,38.88
2023-04-28T11:19:34.593Z,43.13
2023-04-28T11:22:03.123Z,39.78
2023-04-28T11:24:31.091Z,33.10
2023-04-28T11:26:59.218Z,40.03
2023-04-28T11:29:40.182Z,38.08
2023-04-28T11:32:10.441Z,49.75
2023-04-28T11:34:37.903Z,40.72
2023-04-28T11:37:07.269Z,42.40
2023-04-28T11:39:34.699Z,41.47
2023-04-28T11:42:09.202Z,34.95
2023-04-28T11:44:35.933Z,37.30
2023-04-28T11:47:04.310Z,47.60
2023-04-28T11:49:41.639Z,42.42
2023-04-28T11:52:09.347Z,36.78
2023-04-28T11:54:37.591Z,32.95
2023-04-28T11:57:05.868Z,44.92
2023-04-28T11:59:34.575Z,40.47
2023-04-28T12:02:03.939Z,39.30
2023-04-28T12:04:41.873Z,37.70
2023-04-28T12:07:16.363Z,39.40
2023-04-28T12:09:46.947Z,41.55
2023-04-28T12:12:45.189Z,35.50
2023-04-28T12:15:18.034Z,36.60
2023-04-28T12:17:46.326Z,33.47
2023-04-28T12:20:37.559Z,35.53
2023-04-28T12:23:05.610Z,32.55
2023-04-28T12:25:34.082Z,33.30
2023-04-28T12:28:07.999Z,36.05
2023-04-28T12:30:42.144Z,33.15
2023-04-28T12:33:26.102Z,32.58
2023-04-28T12:35:55.201Z,38.60
2023-04-28T12:38:22.769Z,28.75
2023-04-28T12:40:49.504Z,37.70
2023-04-28T12:43:16.160Z,43.00
2023-04-28T12:45:43.450Z,28.65
2023-04-28T12:48:10.374Z,22.58
2023-04-28T12:50:37.066Z,29.50
2023-04-28T12:53:03.768Z,26.45
2023-04-28T12:55:30.594Z,23.75
2023-04-28T12:57:57.625Z,26.38
2023-04-28T13:00:25.198Z,43.97
2023-04-28T13:02:53.223Z,30.50
2023-04-28T13:05:20.132Z,30.45
2023-04-28T13:07:47.797Z,31.00
2023-04-28T13:10:14.548Z,31.08
2023-04-28T13:12:41.660Z,22.60
2023-04-28T13:15:09.226Z,27.95
2023-04-28T13:17:36.171Z,23.05
2023-04-28T13:20:05.643Z,36.05
2023-04-28T13:22:32.425Z,27.88
2023-04-28T13:24:59.160Z,35.67
2023-04-28T13:27:26.030Z,39.70
2023-04-28T13:29:52.847Z,30.70
2023-04-28T13:32:19.560Z,32.50
2023-04-28T13:34:46.838Z,29.73
2023-04-28T13:37:13.866Z,32.20
2023-04-28T13:39:40.634Z,34.83
2023-04-28T13:42:07.344Z,33.30
2023-04-28T13:44:34.050Z,28.67
2023-04-28T13:47:00.961Z,24.42
2023-04-28T13:49:28.151Z,22.75
2023-04-28T13:51:54.809Z,25.70
2023-04-28T13:54:21.948Z,25.30
2023-04-28T13:56:48.712Z,24.83
2023-04-28T13:59:15.416Z,15.15
2023-04-28T14:01:42.314Z,14.70
2023-04-28T14:04:09.357Z,13.13
2023-04-28T14:06:37.684Z,10.98
2023-04-28T14:09:04.537Z,12.00
2023-04-28T14:11:31.187Z,11.95
2023-04-28T14:13:57.865Z,13.30
2023-04-28T14:16:24.732Z,11.00
2023-04-28T14:18:51.912Z,14.98
2023-04-28T14:21:18.671Z,10.82
2023-04-28T14:23:45.371Z,12.90
2023-04-28T14:26:12.180Z,9.43
2023-04-28T14:28:38.889Z,9.73
2023-04-28T14:31:09.322Z,9.93
2023-04-28T14:33:36.886Z,7.47
2023-04-28T14:36:04.128Z,8.85
2023-04-28T14:38:31.298Z,9.35
2023-04-28T14:40:58.289Z,10.85
2023-04-28T14:43:25.102Z,8.65
2023-04-28T14:45:52.261Z,8.63
2023-04-28T14:48:19.705Z,7.65
2023-04-28T14:50:46.897Z,11.02
2023-04-28T14:53:13.618Z,10.85
2023-04-28T14:55:40.527Z,12.02
2023-04-28T14:58:07.571Z,21.17
2023-04-28T15:00:36.094Z,19.23
2023-04-28T15:03:03.123Z,17.58
2023-04-28T15:05:29.898Z,14.65
2023-04-28T15:07:56.902Z,15.85
2023-04-28T15:10:23.651Z,11.57
2023-04-28T15:12:50.649Z,18.52
2023-04-28T15:15:17.375Z,23.83
2023-04-28T15:17:45.144Z,19.25
2023-04-28T15:20:11.970Z,16.65
2023-04-28T15:22:38.754Z,16.85
2023-04-28T15:25:06.033Z,26.45
2023-04-28T15:27:32.780Z,18.58
2023-04-28T15:29:59.533Z,25.80
2023-04-28T15:32:27.281Z,22.77
2023-04-28T15:34:55.123Z,19.75
2023-04-28T15:37:52.117Z,20.83
2023-04-28T15:40:20.106Z,22.08
2023-04-28T15:42:51.839Z,25.27
2023-04-28T15:45:22.603Z,20.42
2023-04-28T15:47:50.926Z,23.42
2023-04-28T15:50:19.832Z,21.88
2023-04-28T15:52:47.672Z,21.58
2023-04-28T15:55:15.781Z,23.90
2023-04-28T15:57:43.279Z,26.05
2023-04-28T16:00:11.400Z,24.45
2023-04-28T16:02:39.409Z,24.98
2023-04-28T16:05:06.876Z,21.50
2023-04-28T16:07:42.348Z,18.08
2023-04-28T16:10:09.957Z,20.02
2023-04-28T16:12:37.099Z,24.95
2023-04-28T16:15:04.226Z,20.98
2023-04-28T16:17:31.130Z,25.38
2023-04-28T16:19:57.934Z,19.92
2023-04-28T16:22:25.428Z,27.23
2023-04-28T16:24:53.876Z,23.83
2023-04-28T16:27:20.942Z,26.77
2023-04-28T16:29:47.664Z,16.75
2023-04-28T16:32:14.512Z,12.77
2023-04-28T16:34:41.531Z,9.90
2023-04-28T16:37:08.413Z,10.98
2023-04-28T16:39:35.070Z,9.63
2023-04-28T16:42:01.993Z,9.52
2023-04-28T16:44:28.897Z,9.00
2023-04-28T16:47:00.755Z,12.18
2023-04-28T16:49:27.675Z,9.70
2023-04-28T16:52:02.168Z,6.05
2023-04-28T16:54:30.142Z,13.25
2023-04-28T16:57:02.570Z,9.20
2023-04-28T16:59:33.977Z,11.65
2023-04-28T17:02:04.930Z,15.18
2023-04-28T17:04:32.051Z,15.15
2023-04-28T17:06:59.287Z,30.65
2023-04-28T17:09:26.393Z,30.15
2023-04-28T17:11:53.258Z,25.08
2023-04-28T17:14:20.140Z,11.98
2023-04-28T17:16:47.273Z,7.85
2023-04-28T17:19:14.538Z,7.70
2023-04-28T17:21:41.458Z,6.28
2023-04-28T17:24:09.026Z,8.93
2023-04-28T17:26:36.486Z,6.72
2023-04-28T17:29:04.120Z,11.07
2023-04-28T17:31:31.431Z,7.97
2023-04-28T17:33:59.889Z,9.07
2023-04-28T17:36:27.396Z,10.38
2023-04-28T17:38:55.036Z,12.32
2023-04-28T17:41:22.932Z,6.70
2023-04-28T17:43:51.848Z,12.40
2023-04-28T17:46:19.142Z,11.80
2023-04-28T17:48:45.964Z,6.45
2023-04-28T17:51:12.775Z,9.30
2023-04-28T17:53:39.725Z,12.32
2023-04-28T17:56:06.853Z,13.68
2023-04-28T17:58:33.795Z,12.05
2023-04-28T18:01:04.971Z,10.90
2023-04-28T18:03:34.012Z,10.65
2023-04-28T18:06:01.460Z,6.03
2023-04-28T18:08:28.325Z,11.55
2023-04-28T18:10:55.858Z,9.98
2023-04-28T18:13:22.578Z,7.95
2023-04-28T18:15:49.471Z,7.47
2023-04-28T18:18:17.037Z,10.50
2023-04-28T18:20:43.995Z,8.55
2023-04-28T18:23:10.828Z,14.68
2023-04-28T18:25:37.794Z,7.28
2023-04-28T18:28:05.479Z,9.70
2023-04-28T18:30:38.091Z,8.93
2023-04-28T18:33:08.759Z,8.45
2023-04-28T18:35:37.039Z,7.93
2023-04-28T18:38:05.187Z,8.00
2023-04-28T18:40:33.333Z,8.20
2023-04-28T18:43:01.017Z,9.07
2023-04-28T18:45:32.381Z,7.50
2023-04-28T18:47:59.248Z,4.68
2023-04-28T18:50:26.088Z,6.93
2023-04-28T18:52:52.766Z,6.18
2023-04-28T18:55:19.670Z,7.60
2023-04-28T18:57:48.200Z,6.78
2023-04-28T19:00:16.439Z,6.60
2023-04-28T19:02:44.680Z,7.82
2023-04-28T19:05:12.755Z,7.70
2023-04-28T19:07:39.540Z,7.05
2023-04-28T19:10:07.109Z,7.50
2023-04-28T19:12:33.785Z,6.05
2023-04-28T19:15:01.132Z,7.28
2023-04-28T19:17:28.593Z,7.47
2023-04-28T19:19:56.675Z,9.15
2023-04-28T19:22:35.687Z,5.28
2023-04-28T19:25:04.165Z,9.55
2023-04-28T19:27:39.202Z,10.30
2023-04-28T19:30:09.006Z,6.50
2023-04-28T19:32:35.978Z,7.70
2023-04-28T19:35:04.561Z,4.90
2023-04-28T19:37:31.971Z,7.00
2023-04-28T19:39:58.841Z,7.18
2023-04-28T19:42:26.081Z,6.40
2023-04-28T19:44:58.103Z,5.60
2023-04-28T19:47:30.065Z,4.22
2023-04-28T19:50:00.707Z,6.78
2023-04-28T19:52:28.030Z,7.22
2023-04-28T19:54:54.983Z,6.18
2023-04-28T19:57:22.503Z,6.65
2023-04-28T19:59:49.841Z,7.50
2023-04-28T20:02:17.512Z,7.97
2023-04-28T20:04:45.265Z,7.25
2023-04-28T20:07:12.155Z,5.75
2023-04-28T20:09:39.281Z,5.85
2023-04-28T20:12:08.834Z,6.93
2023-04-28T20:14:37.179Z,7.82
2023-04-28T20:17:05.615Z,7.22
2023-04-28T20:19:32.385Z,9.93
2023-04-28T20:21:59.038Z,8.18
2023-04-28T20:24:25.925Z,9.07
2023-04-28T20:26:54.643Z,8.48
2023-04-28T20:29:21.546Z,9.15
2023-04-28T20:31:48.549Z,7.22
2023-04-28T20:34:15.445Z,6.20
2023-04-28T20:36:43.071Z,10.18
2023-04-28T20:39:11.906Z,6.63
2023-04-28T20:41:41.024Z,6.47
2023-04-28T20:44:08.242Z,6.03
2023-04-28T20:46:35.588Z,5.07
2023-04-28T20:49:03.001Z,6.75
2023-04-28T20:51:30.222Z,11.05
2023-04-28T20:53:57.737Z,5.68
2023-04-28T20:56:24.560Z,5.85
2023-04-28T20:58:51.576Z,7.47
2023-04-28T21:01:18.465Z,4.95
2023-04-28T21:03:45.570Z,12.52
2023-04-28T21:06:12.630Z,14.32
2023-04-28T21:08:40.906Z,10.93
2023-04-28T21:11:17.924Z,8.82
2023-04-28T21:13:45.888Z,7.82
2023-04-28T21:16:20.568Z,8.95
2023-04-28T21:18:48.304Z,5.10
2023-04-28T21:21:15.445Z,7.15
2023-04-28T21:23:43.234Z,5.13
2023-04-28T21:26:10.609Z,8.18
2023-04-28T21:28:37.635Z,8.57
2023-04-28T21:31:05.099Z,11.32
2023-04-28T21:33:32.328Z,7.30
2023-04-28T21:36:03.697Z,8.10
2023-04-28T21:38:30.413Z,7.43
2023-04-28T21:40:57.099Z,8.00
2023-04-28T21:43:24.213Z,7.63
2023-04-28T21:45:52.232Z,8.20
2023-04-28T21:48:19.050Z,8.52
2023-04-28T21:50:45.796Z,7.40
2023-04-28T21:53:12.488Z,6.75
2023-04-28T21:55:44.437Z,8.88
2023-04-28T21:58:11.703Z,10.40
2023-04-28T22:00:49.046Z,18.92
2023-04-28T22:03:16.404Z,9.10
2023-04-28T22:05:44.847Z,9.05
2023-04-28T22:08:12.822Z,7.82
2023-04-28T22:10:39.678Z,5.95
2023-04-28T22:13:07.005Z,7.32
2023-04-28T22:15:34.739Z,8.20
2023-04-28T22:18:05.642Z,6.40
2023-04-28T22:20:32.624Z,9.93
2023-04-28T22:22:59.438Z,5.57
2023-04-28T22:25:26.373Z,10.77
2023-04-28T22:27:53.025Z,7.03
2023-04-28T22:30:19.933Z,13.90
2023-04-28T22:32:47.376Z,8.55
2023-04-28T22:35:16.882Z,7.15
2023-04-28T22:37:43.810Z,11.07
2023-04-28T22:40:11.326Z,5.40
2023-04-28T22:42:39.746Z,7.85
2023-04-28T22:45:07.030Z,7.75
2023-04-28T22:47:34.739Z,5.70
2023-04-28T22:50:04.369Z,11.23
2023-04-28T22:52:31.772Z,8.85
2023-04-28T22:54:58.750Z,12.48
2023-04-28T22:57:25.660Z,13.55
2023-04-28T22:59:52.599Z,8.18
2023-04-28T23:02:19.812Z,9.80
2023-04-28T23:04:46.732Z,11.23
2023-04-28T23:07:13.477Z,7.75
2023-04-28T23:09:40.244Z,11.10
2023-04-28T23:12:07.292Z,11.38
2023-04-28T23:14:34.238Z,10.23
2023-04-28T23:17:00.944Z,11.60
2023-04-28T23:19:27.678Z,5.60
2023-04-28T23:21:54.589Z,9.75
2023-04-28T23:24:21.392Z,11.15
2023-04-28T23:26:48.454Z,7.18
2023-04-28T23:29:15.176Z,8.43
2023-04-28T23:31:41.900Z,11.55
2023-04-28T23:34:09.239Z,9.15
2023-04-28T23:36:36.852Z,12.88
2023-04-28T23:39:03.607Z,11.05
2023-04-28T23:41:30.561Z,10.23
2023-04-28T23:43:57.493Z,7.32
2023-04-28T23:46:24.196Z,9.35
2023-04-28T23:48:50.951Z,12.00
2023-04-28T23:51:17.646Z,7.88
2023-04-28T23:53:44.344Z,14.30
2023-04-28T23:56:11.215Z,9.77
2023-04-28T23:58:38.758Z,17.08
